Time;durP1;ratioP1;P1;durP2;ratioP2;P2;SDS_P1;SDS_P2;PMS_P1;PMS_P2;Temp;Humidity;BMP_temperature;BMP_pressure;BME280_temperature;BME280_humidity;BME280_pressure;Samples;Min_cycle;Max_cycle;Signal;HPM_P1;HPM_P2
2021/01/08 00:00:11;;;;;;;;;;;;;;;0.55;100.00;99939.00;5033506;28;19931;-76
2021/01/08 00:02:38;;;;;;;;;;;;;;;0.52;100.00;99927.88;5034798;28;20398;-75
2021/01/08 00:05:05;;;;;;;;;;;;;;;0.58;100.00;99929.28;5017503;28;19940;-76
2021/01/08 00:07:33;;;;;;;;;;;;;;;0.60;100.00;99930.56;5033600;28;19933;-76
2021/01/08 00:10:00;;;;;;;;;;;;;;;0.66;100.00;99926.47;5033774;28;19925;-76
2021/01/08 00:12:33;;;;;;;;;;;;;;;0.63;100.00;99929.88;5017164;28;19925;-75
2021/01/08 00:15:00;;;;;;;;;;;;;;;0.66;100.00;99918.22;5034715;28;19932;-74
2021/01/08 00:17:30;;;;;;;;;;;;;;;0.78;100.00;99929.25;5050231;28;20426;-75
2021/01/08 00:19:57;;;;;;;;;;;;;;;0.89;100.00;99938.72;5033598;28;19925;-75
2021/01/08 00:22:24;;;;;;;;;;;;;;;0.97;100.00;99931.50;5066489;28;19932;-76
2021/01/08 00:24:51;;;;;;;;;;;;;;;0.94;100.00;99929.44;5034743;28;19983;-75
2021/01/08 00:27:18;;;;;;;;;;;;;;;1.04;100.00;99924.31;5034593;28;19929;-76
2021/01/08 00:29:44;;;;;;;;;;;;;;;1.06;100.00;99927.50;5016799;28;19925;-75
2021/01/08 00:32:13;;;;;;;;;;;;;;;1.10;100.00;99920.19;5033183;28;19925;-76
2021/01/08 00:34:40;;;;;;;;;;;;;;;1.06;100.00;99915.72;5034267;28;20312;-76
2021/01/08 00:37:06;;;;;;;;;;;;;;;1.12;100.00;99917.88;5016405;28;19925;-75
2021/01/08 00:39:33;;;;;;;;;;;;;;;1.15;100.00;99913.66;5034208;28;19947;-75
2021/01/08 00:42:00;;;;;;;;;;;;;;;1.24;100.00;99911.63;5033073;28;19925;-75
2021/01/08 00:44:27;;;;;;;;;;;;;;;1.15;100.00;99914.44;5032898;28;19931;-75
2021/01/08 00:46:53;;;;;;;;;;;;;;;1.16;100.00;99899.56;5032816;28;19925;-75
2021/01/08 00:49:20;;;;;;;;;;;;;;;1.04;100.00;99899.53;5033039;28;19925;-75
2021/01/08 00:51:48;;;;;;;;;;;;;;;1.10;100.00;99889.91;5032808;28;19975;-75
2021/01/08 00:54:15;;;;;;;;;;;;;;;1.06;100.00;99883.47;5032815;28;20011;-75
2021/01/08 00:56:51;;;;;;;;;;;;;;;1.06;100.00;99883.47;5032650;28;19971;-75
2021/01/08 00:59:32;;;;;;;;;;;;;;;1.03;100.00;99886.13;5032733;28;19931;-75
2021/01/08 01:01:58;;;;;;;;;;;;;;;0.97;100.00;99871.75;5032428;28;19931;-75
2021/01/08 01:04:25;;;;;;;;;;;;;;;0.98;100.00;99870.63;5065682;28;20291;-75
2021/01/08 01:06:51;;;;;;;;;;;;;;;0.95;100.00;99882.31;5033477;28;19925;-75
2021/01/08 01:09:18;;;;;;;;;;;;;;;1.03;100.00;99880.63;5049230;28;20334;-76
2021/01/08 01:11:44;;;;;;;;;;;;;;;0.92;100.00;99873.94;5032374;28;19929;-75
2021/01/08 01:14:11;;;;;;;;;;;;;;;0.91;100.00;99870.38;5048933;28;19929;-75
2021/01/08 01:16:38;;;;;;;;;;;;;;;0.88;100.00;99873.78;5049088;28;19925;-75
2021/01/08 01:19:05;;;;;;;;;;;;;;;1.05;100.00;99875.56;5032426;28;19932;-76
2021/01/08 01:21:31;;;;;;;;;;;;;;;1.00;100.00;99873.81;5032810;28;19925;-75
2021/01/08 01:23:58;;;;;;;;;;;;;;;1.01;100.00;99875.44;5032201;28;19991;-75
2021/01/08 01:26:24;;;;;;;;;;;;;;;0.94;100.00;99871.66;5032232;28;19929;-75
2021/01/08 01:28:51;;;;;;;;;;;;;;;0.89;100.00;99863.59;5032377;28;19929;-75
2021/01/08 01:31:17;;;;;;;;;;;;;;;0.90;100.00;99873.44;5032220;28;20281;-76
2021/01/08 01:33:44;;;;;;;;;;;;;;;0.94;100.00;99869.69;5033304;28;19932;-75
2021/01/08 01:36:11;;;;;;;;;;;;;;;0.99;100.00;99872.22;5031863;28;19937;-75
2021/01/08 01:38:37;;;;;;;;;;;;;;;0.96;100.00;99863.84;5032317;28;19929;-75
2021/01/08 01:41:04;;;;;;;;;;;;;;;0.92;100.00;99866.50;5015685;28;19926;-75
2021/01/08 01:43:30;;;;;;;;;;;;;;;0.91;100.00;99870.38;5032030;28;20008;-75
2021/01/08 01:45:57;;;;;;;;;;;;;;;0.90;100.00;99871.53;5033176;28;20555;-75
2021/01/08 01:48:24;;;;;;;;;;;;;;;0.93;100.00;99879.09;5033182;28;20307;-75
2021/01/08 01:50:50;;;;;;;;;;;;;;;0.93;100.00;99887.34;5032607;28;19979;-75
2021/01/08 01:53:17;;;;;;;;;;;;;;;0.97;100.00;99882.75;5033588;28;20019;-75
2021/01/08 01:55:44;;;;;;;;;;;;;;;0.94;100.00;99877.94;5032101;28;19932;-75
2021/01/08 01:58:11;;;;;;;;;;;;;;;0.87;100.00;99868.63;5031819;28;19936;-75
2021/01/08 02:00:37;;;;;;;;;;;;;;;0.95;100.00;99876.00;5031626;28;19925;-75
2021/01/08 02:03:07;;;;;;;;;;;;;;;0.77;100.00;99863.56;5048313;28;19932;-75
2021/01/08 02:05:34;;;;;;;;;;;;;;;0.84;100.00;99864.63;5032896;28;19925;-75
2021/01/08 02:08:07;;;;;;;;;;;;;;;0.80;100.00;99858.22;5031707;28;19928;-75
2021/01/08 02:10:56;;;;;;;;;;;;;;;0.96;100.00;99861.91;5048158;28;19925;-75
2021/01/08 02:13:29;;;;;;;;;;;;;;;1.02;100.00;99866.03;5031180;28;20346;-75
2021/01/08 02:15:57;;;;;;;;;;;;;;;1.07;100.00;99868.59;5064737;28;20384;-75
2021/01/08 02:18:26;;;;;;;;;;;;;;;1.06;100.00;99869.72;5031309;28;19936;-75
2021/01/08 02:20:55;;;;;;;;;;;;;;;1.10;100.00;99865.16;5031802;28;20311;-74
2021/01/08 02:23:29;;;;;;;;;;;;;;;1.03;100.00;99861.34;5031632;28;19925;-74
2021/01/08 02:25:56;;;;;;;;;;;;;;;1.05;100.00;99859.84;5032924;28;20011;-74
2021/01/08 02:28:24;;;;;;;;;;;;;;;1.02;100.00;99860.53;5033303;28;19925;-75
2021/01/08 02:30:51;;;;;;;;;;;;;;;1.10;100.00;99867.09;5031516;28;20376;-75
2021/01/08 02:33:19;;;;;;;;;;;;;;;0.99;100.00;99855.72;5033974;28;19925;-75
2021/01/08 02:35:50;;;;;;;;;;;;;;;0.94;100.00;99853.16;5035375;28;19932;-75
2021/01/08 02:38:18;;;;;;;;;;;;;;;1.04;100.00;99851.94;5035427;28;19975;-75
2021/01/08 02:40:48;;;;;;;;;;;;;;;1.03;100.00;99851.13;5035285;28;19929;-75
2021/01/08 02:43:18;;;;;;;;;;;;;;;1.16;100.00;99854.69;5068375;28;19925;-75
2021/01/08 02:45:45;;;;;;;;;;;;;;;1.10;100.00;99853.31;5018748;28;19929;-74
2021/01/08 02:48:11;;;;;;;;;;;;;;;1.09;100.00;99863.50;5034889;28;19936;-77
2021/01/08 02:50:38;;;;;;;;;;;;;;;1.03;100.00;99853.88;5034998;28;19975;-74
2021/01/08 02:53:06;;;;;;;;;;;;;;;1.03;100.00;99853.88;5035079;28;19925;-75
2021/01/08 02:55:33;;;;;;;;;;;;;;;0.97;100.00;99857.22;5051852;28;19925;-75
2021/01/08 02:58:02;;;;;;;;;;;;;;;0.86;100.00;99850.53;5036071;28;19952;-75
2021/01/08 03:00:33;;;;;;;;;;;;;;;0.91;100.00;99853.84;5034659;28;19936;-75
2021/01/08 03:03:00;;;;;;;;;;;;;;;0.87;100.00;99858.44;5035869;28;19932;-75
2021/01/08 03:05:27;;;;;;;;;;;;;;;0.98;100.00;99865.13;5051589;28;19933;-75
2021/01/08 03:07:55;;;;;;;;;;;;;;;0.97;100.00;99860.75;5036002;28;20035;-75
2021/01/08 03:10:22;;;;;;;;;;;;;;;1.00;100.00;99857.31;5035875;28;20364;-75
2021/01/08 03:12:57;;;;;;;;;;;;;;;1.03;100.00;99861.34;5034493;28;19925;-75
2021/01/08 03:15:23;;;;;;;;;;;;;;;1.12;100.00;99868.34;5034663;28;19931;-75
2021/01/08 03:17:50;;;;;;;;;;;;;;;1.03;100.00;99867.63;5034394;28;19948;-75
2021/01/08 03:20:17;;;;;;;;;;;;;;;1.03;100.00;99864.88;5034512;28;19952;-75
2021/01/08 03:22:43;;;;;;;;;;;;;;;1.19;100.00;99865.84;5034503;28;19925;-75
2021/01/08 03:25:10;;;;;;;;;;;;;;;1.10;100.00;99859.63;5051283;28;19929;-75
2021/01/08 03:27:36;;;;;;;;;;;;;;;1.08;100.00;99852.84;5034461;28;19932;-75
2021/01/08 03:30:07;;;;;;;;;;;;;;;0.87;100.00;99841.13;5035844;28;19955;-75
2021/01/08 03:32:34;;;;;;;;;;;;;;;0.84;100.00;99845.38;5017751;28;19933;-75
2021/01/08 03:35:01;;;;;;;;;;;;;;;1.22;100.00;99864.34;5017915;28;19925;-74
2021/01/08 03:37:27;;;;;;;;;;;;;;;1.27;100.00;99867.66;5034216;28;20296;-76
2021/01/08 03:39:54;;;;;;;;;;;;;;;1.02;100.00;99854.22;5034293;28;19925;-76
2021/01/08 03:42:20;;;;;;;;;;;;;;;0.92;100.00;99843.66;5035226;28;20338;-76
2021/01/08 03:44:47;;;;;;;;;;;;;;;0.91;100.00;99853.84;5033751;28;20019;-75
2021/01/08 03:47:13;;;;;;;;;;;;;;;0.94;100.00;99844.91;5035220;28;20308;-75
2021/01/08 03:49:41;;;;;;;;;;;;;;;0.98;100.00;99845.03;5034099;28;19929;-75
2021/01/08 03:52:08;;;;;;;;;;;;;;;0.99;100.00;99850.22;5033846;28;19929;-76
2021/01/08 03:54:35;;;;;;;;;;;;;;;0.99;100.00;99850.22;5033996;28;20454;-75
2021/01/08 03:57:02;;;;;;;;;;;;;;;0.98;100.00;99850.56;5033895;28;19979;-76
2021/01/08 03:59:29;;;;;;;;;;;;;;;1.03;100.00;99862.13;5016992;28;20308;-76
2021/01/08 04:01:55;;;;;;;;;;;;;;;1.01;100.00;99858.94;5034850;28;19932;-76
2021/01/08 04:04:22;;;;;;;;;;;;;;;0.97;100.00;99858.00;5033773;28;19925;-76
2021/01/08 04:06:50;;;;;;;;;;;;;;;1.25;100.00;99864.47;5033707;28;19932;-76
2021/01/08 04:09:19;;;;;;;;;;;;;;;1.13;100.00;99861.72;5017154;28;19932;-76
2021/01/08 04:11:46;;;;;;;;;;;;;;;1.08;100.00;99858.34;5034846;28;20020;-76
2021/01/08 04:14:13;;;;;;;;;;;;;;;1.05;100.00;99865.34;5034468;28;20032;-76
2021/01/08 04:16:41;;;;;;;;;;;;;;;1.09;100.00;99859.97;5034654;28;20296;-76
2021/01/08 04:19:08;;;;;;;;;;;;;;;0.98;100.00;99856.06;5016998;28;20023;-76
2021/01/08 04:21:35;;;;;;;;;;;;;;;0.96;100.00;99864.66;5033361;28;19932;-76
2021/01/08 04:24:02;;;;;;;;;;;;;;;0.99;100.00;99866.72;5033642;28;19932;-76
2021/01/08 04:26:29;;;;;;;;;;;;;;;0.95;100.00;99874.06;5033393;28;19929;-76
2021/01/08 04:28:56;;;;;;;;;;;;;;;0.94;100.00;99874.41;5032944;28;20364;-77
2021/01/08 04:31:24;;;;;;;;;;;;;;;1.09;100.00;99876.50;5016809;28;19929;-76
2021/01/08 04:33:50;;;;;;;;;;;;;;;1.18;100.00;99875.22;5034430;28;19959;-76
2021/01/08 04:36:17;;;;;;;;;;;;;;;1.33;100.00;99882.81;5034403;28;20435;-76
2021/01/08 04:38:43;;;;;;;;;;;;;;;1.32;100.00;99886.72;5033015;28;19925;-76
2021/01/08 04:41:10;;;;;;;;;;;;;;;1.32;100.00;99883.97;5033077;28;19925;-76
2021/01/08 04:43:36;;;;;;;;;;;;;;;1.31;100.00;99884.31;5033996;28;20407;-76
2021/01/08 04:46:15;;;;;;;;;;;;;;;1.50;100.00;99893.63;5034091;28;19925;-76
2021/01/08 04:48:42;;;;;;;;;;;;;;;1.48;100.00;99887.66;5033002;28;19936;-76
2021/01/08 04:51:10;;;;;;;;;;;;;;;1.55;100.00;99895.34;5032765;28;19925;-76
2021/01/08 04:53:36;;;;;;;;;;;;;;;1.54;100.00;99878.03;5016461;28;19925;-76
2021/01/08 04:56:06;;;;;;;;;;;;;;;1.50;100.00;99887.34;5015810;28;19925;-76
2021/01/08 04:58:33;;;;;;;;;;;;;;;1.52;100.00;99883.06;5016214;28;19925;-76
2021/01/08 05:01:00;;;;;;;;;;;;;;;1.51;100.00;99883.41;5033779;28;19925;-76
2021/01/08 05:03:27;;;;;;;;;;;;;;;1.54;100.00;99879.97;5033611;28;19925;-76
2021/01/08 05:05:54;;;;;;;;;;;;;;;1.53;100.00;99876.41;5033826;28;19925;-76
2021/01/08 05:08:24;;;;;;;;;;;;;;;1.56;100.00;99869.44;5032572;28;19926;-76
2021/01/08 05:10:51;;;;;;;;;;;;;;;1.52;100.00;99858.28;5032439;28;19932;-76
2021/01/08 05:13:17;;;;;;;;;;;;;;;1.52;100.00;99863.78;5032130;28;20296;-75
2021/01/08 05:15:51;;;;;;;;;;;;;;;1.50;100.00;99852.31;5048933;28;19925;-76
2021/01/08 05:18:20;;;;;;;;;;;;;;;1.46;100.00;99858.84;5032553;28;19925;-74
2021/01/08 05:20:52;;;;;;;;;;;;;;;1.53;100.00;99854.38;5033534;28;19925;-76
2021/01/08 05:23:19;;;;;;;;;;;;;;;1.48;100.00;99845.53;5032442;28;19932;-76
2021/01/08 05:25:47;;;;;;;;;;;;;;;1.48;100.00;99851.88;5032150;28;19925;-74
2021/01/08 05:28:17;;;;;;;;;;;;;;;1.42;100.00;99849.69;5032179;28;19925;-74
2021/01/08 05:30:43;;;;;;;;;;;;;;;1.47;100.00;99855.75;5048700;28;19932;-76
2021/01/08 05:33:12;;;;;;;;;;;;;;;1.44;100.00;99853.69;5032124;28;19925;-76
2021/01/08 05:35:39;;;;;;;;;;;;;;;1.45;100.00;99852.53;5032238;28;19925;-74
2021/01/08 05:38:06;;;;;;;;;;;;;;;1.49;100.00;99853.47;5033277;28;19932;-76
2021/01/08 05:40:33;;;;;;;;;;;;;;;1.53;100.00;99854.38;5031979;28;19925;-76
2021/01/08 05:43:00;;;;;;;;;;;;;;;1.56;100.00;99850.94;5031962;28;19932;-75
2021/01/08 05:45:27;;;;;;;;;;;;;;;1.56;100.00;99853.69;5031961;28;19925;-76
2021/01/08 05:47:56;;;;;;;;;;;;;;;1.58;100.00;99870.69;5033205;28;20451;-76
2021/01/08 05:50:23;;;;;;;;;;;;;;;1.59;100.00;99869.53;5064999;28;19925;-76
2021/01/08 05:52:51;;;;;;;;;;;;;;;1.63;100.00;99875.97;5033441;28;20011;-76
2021/01/08 05:55:18;;;;;;;;;;;;;;;1.63;100.00;99875.97;5033095;28;19926;-75
2021/01/08 05:57:45;;;;;;;;;;;;;;;1.63;100.00;99859.44;5015376;28;19979;-74
2021/01/08 06:00:12;;;;;;;;;;;;;;;1.58;100.00;99865.16;5032958;28;19932;-76
2021/01/08 06:02:39;;;;;;;;;;;;;;;1.60;100.00;99865.63;5031892;28;19925;-76
2021/01/08 06:05:06;;;;;;;;;;;;;;;1.65;100.00;99868.13;5031849;28;20299;-76
2021/01/08 06:07:35;;;;;;;;;;;;;;;1.62;100.00;99860.56;5036393;28;19925;-77
2021/01/08 06:10:03;;;;;;;;;;;;;;;1.61;100.00;99866.41;5019188;28;19926;-76
2021/01/08 06:12:36;;;;;;;;;;;;;;;1.58;100.00;99872.63;5037218;28;19925;-76
2021/01/08 06:15:04;;;;;;;;;;;;;;;1.59;100.00;99875.03;5035908;28;19925;-75
2021/01/08 06:17:31;;;;;;;;;;;;;;;1.64;100.00;99861.03;5019339;28;19933;-76
2021/01/08 06:20:01;;;;;;;;;;;;;;;1.60;100.00;99876.66;5036730;28;19971;-76
2021/01/08 06:22:35;;;;;;;;;;;;;;;1.65;100.00;99876.41;5068866;28;19929;-74
2021/01/08 06:25:01;;;;;;;;;;;;;;;1.65;100.00;99879.16;5036536;28;19936;-76
2021/01/08 06:27:31;;;;;;;;;;;;;;;1.68;100.00;99883.19;5035507;28;20392;-74
2021/01/08 06:30:00;;;;;;;;;;;;;;;1.63;100.00;99884.22;5036645;28;19972;-74
2021/01/08 06:32:30;;;;;;;;;;;;;;;1.64;100.00;99880.31;5036506;28;19925;-74
2021/01/08 06:35:07;;;;;;;;;;;;;;;1.62;100.00;99885.34;5036715;28;20007;-74
2021/01/08 06:37:41;;;;;;;;;;;;;;;1.61;100.00;99891.22;5035252;28;20398;-75
2021/01/08 06:40:08;;;;;;;;;;;;;;;1.64;100.00;99902.34;5035004;28;19925;-76
2021/01/08 06:42:45;;;;;;;;;;;;;;;1.60;100.00;99895.13;5035126;28;19925;-74
2021/01/08 06:45:12;;;;;;;;;;;;;;;1.56;100.00;99896.97;5035089;28;20032;-75
2021/01/08 06:47:41;;;;;;;;;;;;;;;1.56;100.00;99902.47;5036337;28;19933;-78
2021/01/08 06:50:13;;;;;;;;;;;;;;;1.54;100.00;99894.56;5034907;28;20261;-73
2021/01/08 06:52:42;;;;;;;;;;;;;;;1.51;100.00;99895.25;5067983;28;19925;-75
2021/01/08 06:55:13;;;;;;;;;;;;;;;1.48;100.00;99895.13;5036041;28;20012;-75
2021/01/08 06:57:46;;;;;;;;;;;;;;;1.51;100.00;99906.25;5061045;28;19929;-75
2021/01/08 07:00:17;;;;;;;;;;;;;;;1.45;100.00;99902.09;5048571;28;20023;-75
2021/01/08 07:02:44;;;;;;;;;;;;;;;1.42;100.00;99910.25;5051385;28;20443;-73
2021/01/08 07:05:15;;;;;;;;;;;;;;;1.41;100.00;99901.19;5049818;28;20023;-73
2021/01/08 07:07:42;;;;;;;;;;;;;;;1.42;100.00;99915.78;5047756;28;19932;-73
2021/01/08 07:10:09;;;;;;;;;;;;;;;1.45;100.00;99926.88;5048852;28;19925;-72
2021/01/08 07:12:40;;;;;;;;;;;;;;;1.50;100.00;99917.63;5048942;28;19924;-72
2021/01/08 07:15:08;;;;;;;;;;;;;;;1.45;100.00;99924.13;5047429;28;19999;-73
2021/01/08 07:17:35;;;;;;;;;;;;;;;1.51;100.00;99930.25;5049217;28;19990;-73
2021/01/08 07:20:03;;;;;;;;;;;;;;;1.51;100.00;99939.31;5049770;28;19933;-73
2021/01/08 07:22:40;;;;;;;;;;;;;;;1.54;100.00;99937.81;5048384;28;20012;-73
2021/01/08 07:25:16;;;;;;;;;;;;;;;1.58;100.00;99947.81;5049317;28;19925;-75
2021/01/08 07:27:43;;;;;;;;;;;;;;;1.58;100.00;99950.56;5051549;28;19928;-75
2021/01/08 07:30:10;;;;;;;;;;;;;;;1.58;100.00;99947.81;5053509;28;20330;-75
2021/01/08 07:32:44;;;;;;;;;;;;;;;1.54;100.00;99952.41;5053087;28;19932;-76
2021/01/08 07:35:27;;;;;;;;;;;;;;;1.56;100.00;99963.88;5055569;28;19931;-76
2021/01/08 07:38:09;;;;;;;;;;;;;;;1.55;100.00;99950.44;5053985;28;19932;-76
2021/01/08 07:40:36;;;;;;;;;;;;;;;1.58;100.00;99958.81;5054141;28;19931;-75
2021/01/08 07:43:06;;;;;;;;;;;;;;;1.51;100.00;99958.59;5037561;28;19971;-76
2021/01/08 07:45:45;;;;;;;;;;;;;;;1.44;100.00;99961.09;5021182;28;19925;-75
2021/01/08 07:48:25;;;;;;;;;;;;;;;1.49;100.00;99968.34;5037447;28;19944;-76
2021/01/08 07:50:57;;;;;;;;;;;;;;;1.45;100.00;99972.91;5020853;28;19941;-75
2021/01/08 07:53:42;;;;;;;;;;;;;;;1.43;100.00;99977.97;5054895;28;19932;-75
2021/01/08 07:56:14;;;;;;;;;;;;;;;1.45;100.00;99992.19;5055056;28;20395;-75
2021/01/08 07:58:42;;;;;;;;;;;;;;;1.47;100.00;99987.16;5053776;28;19925;-75
2021/01/08 08:01:09;;;;;;;;;;;;;;;1.41;100.00;99983.81;5037135;28;19932;-75
2021/01/08 08:03:36;;;;;;;;;;;;;;;1.42;100.00;99982.66;5037286;28;19932;-75
2021/01/08 08:06:03;;;;;;;;;;;;;;;1.38;100.00;99994.69;5053315;28;19947;-75
2021/01/08 08:08:30;;;;;;;;;;;;;;;1.38;100.00;100000.19;5053674;28;19925;-75
2021/01/08 08:11:07;;;;;;;;;;;;;;;1.39;100.00;100005.38;5053546;28;20299;-74
2021/01/08 08:13:33;;;;;;;;;;;;;;;1.43;100.00;100003.56;5053674;28;19947;-75
2021/01/08 08:16:00;;;;;;;;;;;;;;;1.42;100.00;100010.19;5054692;28;19924;-77
2021/01/08 08:18:26;;;;;;;;;;;;;;;1.43;100.00;100016.50;5054539;28;19931;-76
2021/01/08 08:21:09;;;;;;;;;;;;;;;1.46;100.00;100021.34;5036542;28;19999;-77
2021/01/08 08:23:35;;;;;;;;;;;;;;;1.43;100.00;100017.31;5054539;28;20414;-76
2021/01/08 08:26:03;;;;;;;;;;;;;;;1.48;100.00;100025.38;5054509;28;19929;-76
2021/01/08 08:28:29;;;;;;;;;;;;;;;1.46;100.00;100019.41;5036686;28;19944;-76
2021/01/08 08:30:56;;;;;;;;;;;;;;;1.47;100.00;100021.00;5052088;28;19978;-76
2021/01/08 08:33:23;;;;;;;;;;;;;;;1.45;100.00;100023.28;5052928;28;19931;-76
2021/01/08 08:35:50;;;;;;;;;;;;;;;1.52;100.00;100023.56;5036230;28;20441;-75
2021/01/08 08:38:17;;;;;;;;;;;;;;;1.50;100.00;100028.59;5052990;28;20295;-75
2021/01/08 08:40:43;;;;;;;;;;;;;;;1.51;100.00;100030.22;5054178;28;19925;-75
2021/01/08 08:43:18;;;;;;;;;;;;;;;1.41;100.00;100016.84;5052859;28;19925;-75
2021/01/08 08:45:45;;;;;;;;;;;;;;;1.46;100.00;100021.34;5052947;28;19925;-75
2021/01/08 08:48:11;;;;;;;;;;;;;;;1.41;100.00;100008.59;5036187;28;19931;-75
2021/01/08 08:50:42;;;;;;;;;;;;;;;1.49;100.00;100028.91;5053734;28;19925;-75
2021/01/08 08:53:10;;;;;;;;;;;;;;;1.46;100.00;100033.19;5019918;28;19932;-75
2021/01/08 08:55:36;;;;;;;;;;;;;;;1.45;100.00;100034.28;5052641;28;20396;-75
2021/01/08 08:58:04;;;;;;;;;;;;;;;1.33;100.00;100031.50;5053898;28;19925;-75
2021/01/08 09:00:32;;;;;;;;;;;;;;;1.34;100.00;100032.31;5053625;28;19940;-76
2021/01/08 09:02:58;;;;;;;;;;;;;;;1.40;100.00;100051.06;5052553;28;19960;-75
2021/01/08 09:05:34;;;;;;;;;;;;;;;1.38;100.00;100033.25;5035885;28;19932;-74
2021/01/08 09:08:09;;;;;;;;;;;;;;;1.35;100.00;100037.50;5053571;28;20391;-75
2021/01/08 09:10:39;;;;;;;;;;;;;;;1.36;100.00;100052.88;5035891;28;19947;-74
2021/01/08 09:13:13;;;;;;;;;;;;;;;1.40;100.00;100048.31;5052338;28;19925;-74
2021/01/08 09:15:49;;;;;;;;;;;;;;;1.45;100.00;100061.06;5052434;28;19925;-75
2021/01/08 09:18:18;;;;;;;;;;;;;;;1.42;100.00;100062.53;5051887;28;19925;-73
2021/01/08 09:21:03;;;;;;;;;;;;;;;1.30;100.00;100054.22;5053386;28;19928;-74
2021/01/08 09:23:33;;;;;;;;;;;;;;;1.42;100.00;100057.00;5053488;28;20347;-76
2021/01/08 09:26:02;;;;;;;;;;;;;;;1.37;100.00;100071.00;5053468;28;19925;-73
2021/01/08 09:28:28;;;;;;;;;;;;;;;1.37;100.00;100064.69;5019364;28;19974;-83
2021/01/08 09:30:56;;;;;;;;;;;;;;;1.30;100.00;100070.75;5051929;28;19924;-75
2021/01/08 09:33:22;;;;;;;;;;;;;;;1.32;100.00;100073.16;5051453;28;19925;-75
2021/01/08 09:35:50;;;;;;;;;;;;;;;1.23;100.00;100066.91;5051881;28;19925;-75
2021/01/08 09:38:23;;;;;;;;;;;;;;;1.15;100.00;100063.09;5052037;28;19925;-75
2021/01/08 09:40:49;;;;;;;;;;;;;;;1.25;100.00;100067.41;5051600;28;20062;-75
2021/01/08 09:43:16;;;;;;;;;;;;;;;1.09;100.00;100058.16;5029000;28;20307;-76
2021/01/08 09:45:43;;;;;;;;;;;;;;;1.12;100.00;100072.03;5009479;28;19931;-76
2021/01/08 09:48:22;;;;;;;;;;;;;;;1.18;100.00;100076.19;5027980;28;20020;-76
2021/01/08 09:51:05;;;;;;;;;;;;;;;1.11;100.00;100073.19;5027785;28;19932;-75
2021/01/08 09:53:34;;;;;;;;;;;;;;;1.10;100.00;100081.78;5029673;28;19929;-75
2021/01/08 09:56:16;;;;;;;;;;;;;;;1.07;100.00;100080.53;5046331;28;19925;-75
2021/01/08 09:58:43;;;;;;;;;;;;;;;0.94;100.00;100084.31;5027861;28;19929;-75
2021/01/08 10:01:13;;;;;;;;;;;;;;;1.00;100.00;100094.00;5041485;28;19928;-74
2021/01/08 10:03:48;;;;;;;;;;;;;;;1.05;100.00;100096.56;5046522;28;20440;-75
2021/01/08 10:06:15;;;;;;;;;;;;;;;1.03;100.00;100112.59;5047699;28;20382;-74
2021/01/08 10:08:45;;;;;;;;;;;;;;;1.01;100.00;100111.31;5047202;28;19983;-75
2021/01/08 10:11:24;;;;;;;;;;;;;;;1.09;100.00;100111.25;5048293;28;19948;-74
2021/01/08 10:14:00;;;;;;;;;;;;;;;1.06;100.00;100120.19;5030495;28;20288;-73
2021/01/08 10:16:35;;;;;;;;;;;;;;;0.99;100.00;100119.91;5047368;28;20288;-74
2021/01/08 10:19:03;;;;;;;;;;;;;;;1.06;100.00;100120.19;5045643;28;19932;-76
2021/01/08 10:21:29;;;;;;;;;;;;;;;1.06;100.00;100130.41;5028798;28;19976;-74
2021/01/08 10:23:56;;;;;;;;;;;;;;;0.98;100.00;100134.00;5043435;28;19933;-74
2021/01/08 10:26:22;;;;;;;;;;;;;;;1.01;100.00;100131.41;5046007;28;20337;-74
2021/01/08 10:28:56;;;;;;;;;;;;;;;1.02;100.00;100130.25;5011953;28;19924;-74
2021/01/08 10:31:23;;;;;;;;;;;;;;;1.11;100.00;100139.25;5029110;28;19932;-75
2021/01/08 10:33:51;;;;;;;;;;;;;;;1.12;100.00;100143.59;5046826;28;20015;-74
2021/01/08 10:36:18;;;;;;;;;;;;;;;1.08;100.00;100128.09;5048196;28;19925;-73
2021/01/08 10:38:44;;;;;;;;;;;;;;;1.05;100.00;100135.09;5051061;28;19987;-74
2021/01/08 10:41:17;;;;;;;;;;;;;;;0.89;100.00;100130.50;5050973;28;20291;-74
2021/01/08 10:43:44;;;;;;;;;;;;;;;0.80;100.00;100129.75;5051322;28;19924;-74
2021/01/08 10:46:11;;;;;;;;;;;;;;;0.93;100.00;100146.03;5051080;28;19931;-74
2021/01/08 10:48:40;;;;;;;;;;;;;;;0.90;100.00;100143.94;5052299;28;19924;-75
2021/01/08 10:51:08;;;;;;;;;;;;;;;1.05;100.00;100151.59;5018439;28;19931;-74
2021/01/08 10:53:35;;;;;;;;;;;;;;;1.10;100.00;100156.91;5053554;28;20026;-75
2021/01/08 10:56:03;;;;;;;;;;;;;;;1.11;100.00;100160.47;5045745;28;20322;-75
2021/01/08 10:58:30;;;;;;;;;;;;;;;1.01;100.00;100158.94;5043532;28;20060;-75
2021/01/08 11:00:57;;;;;;;;;;;;;;;1.04;100.00;100161.00;5042667;28;19924;-74
2021/01/08 11:03:24;;;;;;;;;;;;;;;1.01;100.00;100166.38;5032920;28;20374;-74
2021/01/08 11:05:52;;;;;;;;;;;;;;;0.93;100.00;100168.03;5049934;28;20431;-80
2021/01/08 11:08:19;;;;;;;;;;;;;;;1.03;100.00;100175.91;5049620;28;19924;-77
2021/01/08 11:10:45;;;;;;;;;;;;;;;0.97;100.00;100166.22;5050049;28;19925;-73
2021/01/08 11:13:12;;;;;;;;;;;;;;;0.95;100.00;100171.28;5053077;28;19994;-74
2021/01/08 11:15:40;;;;;;;;;;;;;;;0.89;100.00;100163.53;5053358;28;20074;-74
2021/01/08 11:18:06;;;;;;;;;;;;;;;0.89;100.00;100169.84;5055706;28;20299;-73
2021/01/08 11:20:33;;;;;;;;;;;;;;;0.91;100.00;100161.28;5054478;28;19925;-74
2021/01/08 11:23:04;;;;;;;;;;;;;;;0.93;100.00;100178.22;5038099;28;19943;-73
2021/01/08 11:25:31;;;;;;;;;;;;;;;0.89;100.00;100174.53;5055739;28;20008;-73
2021/01/08 11:27:58;;;;;;;;;;;;;;;0.90;100.00;100176.97;5054333;28;19924;-73
2021/01/08 11:30:25;;;;;;;;;;;;;;;0.98;100.00;100184.38;5055238;28;20354;-73
2021/01/08 11:32:53;;;;;;;;;;;;;;;0.90;100.00;100182.47;5037591;28;19932;-73
2021/01/08 11:35:19;;;;;;;;;;;;;;;0.88;100.00;100184.72;5037644;28;19932;-74
2021/01/08 11:37:46;;;;;;;;;;;;;;;0.94;100.00;100188.13;5055121;28;19978;-73
2021/01/08 11:40:12;;;;;;;;;;;;;;;0.97;100.00;100193.75;5054153;28;19929;-73
2021/01/08 11:42:39;;;;;;;;;;;;;;;1.01;100.00;100200.22;5054144;28;20315;-73
2021/01/08 11:45:06;;;;;;;;;;;;;;;1.06;100.00;100202.75;5055477;28;20387;-74
2021/01/08 11:47:36;;;;;;;;;;;;;;;1.00;100.00;100208.81;5037363;28;20415;-74
2021/01/08 11:50:03;;;;;;;;;;;;;;;0.89;100.00;100205.63;5053856;28;19928;-74
2021/01/08 11:52:29;;;;;;;;;;;;;;;1.01;100.00;100216.72;5055078;28;19970;-74
2021/01/08 11:54:56;;;;;;;;;;;;;;;0.86;100.00;100222.81;5037406;28;19995;-74
2021/01/08 11:57:22;;;;;;;;;;;;;;;0.88;100.00;100231.50;5037355;28;20326;-74
2021/01/08 11:59:50;;;;;;;;;;;;;;;0.92;100.00;100239.94;5054559;28;19944;-74
2021/01/08 12:02:17;;;;;;;;;;;;;;;0.88;100.00;100245.28;5053802;28;19925;-73
2021/01/08 12:04:43;;;;;;;;;;;;;;;0.78;100.00;100245.66;5020309;28;20394;-73
2021/01/08 12:07:10;;;;;;;;;;;;;;;0.87;100.00;100260.19;5054867;28;20299;-73
2021/01/08 12:09:37;;;;;;;;;;;;;;;0.89;100.00;100271.69;5054716;28;20441;-73
2021/01/08 12:12:04;;;;;;;;;;;;;;;0.86;100.00;100291.59;5053119;28;19924;-74
2021/01/08 12:14:30;;;;;;;;;;;;;;;0.92;100.00;100323.31;5036922;28;19952;-73
2021/01/08 12:17:04;;;;;;;;;;;;;;;0.91;100.00;100349.19;5053428;28;20392;-73
2021/01/08 12:19:31;;;;;;;;;;;;;;;0.95;100.00;100394.19;5036874;28;19928;-74
2021/01/08 12:21:57;;;;;;;;;;;;;;;1.00;100.00;100431.75;5020411;28;19925;-73
2021/01/08 12:24:24;;;;;;;;;;;;;;;0.98;100.00;100498.13;5053259;28;20008;-74
2021/01/08 12:26:52;;;;;;;;;;;;;;;0.92;100.00;100532.47;5036323;28;19925;-74
2021/01/08 12:29:18;;;;;;;;;;;;;;;1.02;100.00;100569.84;5036568;28;19924;-74
2021/01/08 12:31:45;;;;;;;;;;;;;;;0.85;100.00;100591.88;5054246;28;19924;-73
2021/01/08 12:34:12;;;;;;;;;;;;;;;0.93;100.00;100652.44;5036388;28;20533;-74
2021/01/08 12:36:38;;;;;;;;;;;;;;;0.93;100.00;100696.47;5036553;28;19974;-75
2021/01/08 12:39:07;;;;;;;;;;;;;;;0.95;100.00;100746.50;5036621;28;19924;-74
2021/01/08 12:41:34;;;;;;;;;;;;;;;1.01;100.00;100803.03;5052413;28;20352;-74
2021/01/08 12:44:00;;;;;;;;;;;;;;;0.96;100.00;100860.16;5020086;28;19931;-74
2021/01/08 12:46:27;;;;;;;;;;;;;;;0.82;100.00;100895.25;5036571;28;19932;-73
2021/01/08 12:48:53;;;;;;;;;;;;;;;0.82;100.00;100940.06;5053155;28;19924;-73